sensor_id;sensor_type;location;lat;lon;timestamp;P1;durP1;ratioP1;P2;durP2;ratioP2
9759;SDS011;4919;48.792;9.202;2022-08-24T00:00:23;5.27;;;4.70;;
9759;SDS011;4919;48.792;9.202;2022-08-24T00:02:51;7.50;;;4.93;;
9759;SDS011;4919;48.792;9.202;2022-08-24T00:05:18;5.27;;;4.70;;
9759;SDS011;4919;48.792;9.202;2022-08-24T00:07:48;7.43;;;5.00;;
9759;SDS011;4919;48.792;9.202;2022-08-24T00:10:16;5.87;;;4.80;;
9759;SDS011;4919;48.792;9.202;2022-08-24T00:12:43;8.63;;;5.03;;
9759;SDS011;4919;48.792;9.202;2022-08-24T00:15:11;8.63;;;5.10;;
9759;SDS011;4919;48.792;9.202;2022-08-24T00:17:40;5.50;;;4.77;;
9759;SDS011;4919;48.792;9.202;2022-08-24T00:20:07;9.57;;;5.30;;
9759;SDS011;4919;48.792;9.202;2022-08-24T00:22:36;12.57;;;5.67;;
9759;SDS011;4919;48.792;9.202;2022-08-24T00:25:04;6.60;;;5.03;;
9759;SDS011;4919;48.792;9.202;2022-08-24T00:27:31;6.23;;;5.00;;
9759;SDS011;4919;48.792;9.202;2022-08-24T00:29:58;6.03;;;5.27;;
9759;SDS011;4919;48.792;9.202;2022-08-24T00:32:25;7.53;;;5.37;;
9759;SDS011;4919;48.792;9.202;2022-08-24T00:34:55;6.70;;;5.27;;
9759;SDS011;4919;48.792;9.202;2022-08-24T00:37:25;5.80;;;4.90;;
9759;SDS011;4919;48.792;9.202;2022-08-24T00:39:54;5.97;;;5.07;;
9759;SDS011;4919;48.792;9.202;2022-08-24T00:42:22;5.40;;;4.90;;
9759;SDS011;4919;48.792;9.202;2022-08-24T00:44:50;7.53;;;5.40;;
9759;SDS011;4919;48.792;9.202;2022-08-24T00:47:23;8.00;;;5.57;;
9759;SDS011;4919;48.792;9.202;2022-08-24T00:55:28;7.17;;;5.90;;
9759;SDS011;4919;48.792;9.202;2022-08-24T00:58:05;8.93;;;5.77;;
9759;SDS011;4919;48.792;9.202;2022-08-24T01:00:44;8.70;;;5.90;;
9759;SDS011;4919;48.792;9.202;2022-08-24T01:03:14;7.83;;;5.77;;
9759;SDS011;4919;48.792;9.202;2022-08-24T01:05:42;10.60;;;6.27;;
9759;SDS011;4919;48.792;9.202;2022-08-24T01:08:11;7.20;;;5.57;;
9759;SDS011;4919;48.792;9.202;2022-08-24T01:10:41;7.47;;;5.93;;
9759;SDS011;4919;48.792;9.202;2022-08-24T01:13:11;6.57;;;5.63;;
9759;SDS011;4919;48.792;9.202;2022-08-24T01:15:41;7.47;;;5.77;;
9759;SDS011;4919;48.792;9.202;2022-08-24T01:18:16;8.13;;;5.70;;
9759;SDS011;4919;48.792;9.202;2022-08-24T01:26:09;7.63;;;6.13;;
9759;SDS011;4919;48.792;9.202;2022-08-24T01:28:41;7.17;;;5.67;;
9759;SDS011;4919;48.792;9.202;2022-08-24T01:31:11;8.73;;;5.90;;
9759;SDS011;4919;48.792;9.202;2022-08-24T01:33:38;6.50;;;5.53;;
9759;SDS011;4919;48.792;9.202;2022-08-24T01:36:14;7.67;;;5.60;;
9759;SDS011;4919;48.792;9.202;2022-08-24T01:38:54;7.73;;;5.77;;
9759;SDS011;4919;48.792;9.202;2022-08-24T01:41:26;7.53;;;5.57;;
9759;SDS011;4919;48.792;9.202;2022-08-24T01:43:55;7.40;;;6.00;;
9759;SDS011;4919;48.792;9.202;2022-08-24T01:46:23;7.50;;;5.53;;
9759;SDS011;4919;48.792;9.202;2022-08-24T01:48:51;8.17;;;6.00;;
9759;SDS011;4919;48.792;9.202;2022-08-24T01:51:18;6.27;;;5.67;;
9759;SDS011;4919;48.792;9.202;2022-08-24T01:53:46;7.47;;;6.27;;
9759;SDS011;4919;48.792;9.202;2022-08-24T01:56:14;6.53;;;5.73;;
9759;SDS011;4919;48.792;9.202;2022-08-24T01:58:45;6.97;;;5.83;;
9759;SDS011;4919;48.792;9.202;2022-08-24T02:01:14;8.57;;;5.90;;
9759;SDS011;4919;48.792;9.202;2022-08-24T02:03:46;9.07;;;5.40;;
9759;SDS011;4919;48.792;9.202;2022-08-24T02:06:18;6.27;;;5.47;;
9759;SDS011;4919;48.792;9.202;2022-08-24T02:08:45;7.37;;;6.00;;
9759;SDS011;4919;48.792;9.202;2022-08-24T02:11:13;7.53;;;5.80;;
9759;SDS011;4919;48.792;9.202;2022-08-24T02:13:40;8.70;;;5.77;;
9759;SDS011;4919;48.792;9.202;2022-08-24T02:16:08;8.70;;;6.13;;
9759;SDS011;4919;48.792;9.202;2022-08-24T02:18:35;8.17;;;5.93;;
9759;SDS011;4919;48.792;9.202;2022-08-24T02:21:06;8.60;;;5.80;;
9759;SDS011;4919;48.792;9.202;2022-08-24T02:23:34;8.37;;;6.00;;
9759;SDS011;4919;48.792;9.202;2022-08-24T02:26:05;11.03;;;7.57;;
9759;SDS011;4919;48.792;9.202;2022-08-24T02:28:33;11.03;;;7.27;;
9759;SDS011;4919;48.792;9.202;2022-08-24T02:31:01;10.83;;;7.50;;
9759;SDS011;4919;48.792;9.202;2022-08-24T02:33:33;12.73;;;8.83;;
9759;SDS011;4919;48.792;9.202;2022-08-24T02:36:01;15.23;;;9.10;;
9759;SDS011;4919;48.792;9.202;2022-08-24T02:38:29;16.83;;;10.57;;
9759;SDS011;4919;48.792;9.202;2022-08-24T02:40:56;21.97;;;13.63;;
9759;SDS011;4919;48.792;9.202;2022-08-24T02:43:24;24.90;;;14.70;;
9759;SDS011;4919;48.792;9.202;2022-08-24T02:45:51;30.00;;;16.63;;
9759;SDS011;4919;48.792;9.202;2022-08-24T02:48:20;34.87;;;17.43;;
9759;SDS011;4919;48.792;9.202;2022-08-24T02:50:48;31.07;;;17.20;;
9759;SDS011;4919;48.792;9.202;2022-08-24T02:53:17;37.90;;;19.23;;
9759;SDS011;4919;48.792;9.202;2022-08-24T02:55:47;36.97;;;19.73;;
9759;SDS011;4919;48.792;9.202;2022-08-24T02:58:15;48.70;;;20.30;;
9759;SDS011;4919;48.792;9.202;2022-08-24T03:00:45;47.13;;;21.33;;
9759;SDS011;4919;48.792;9.202;2022-08-24T03:03:16;45.07;;;21.80;;
9759;SDS011;4919;48.792;9.202;2022-08-24T03:05:43;51.23;;;22.43;;
9759;SDS011;4919;48.792;9.202;2022-08-24T03:08:10;55.47;;;23.63;;
9759;SDS011;4919;48.792;9.202;2022-08-24T03:10:37;51.73;;;22.10;;
9759;SDS011;4919;48.792;9.202;2022-08-24T03:13:05;55.63;;;23.43;;
9759;SDS011;4919;48.792;9.202;2022-08-24T03:15:33;54.43;;;23.77;;
9759;SDS011;4919;48.792;9.202;2022-08-24T03:18:00;62.37;;;24.90;;
9759;SDS011;4919;48.792;9.202;2022-08-24T03:20:28;62.93;;;26.03;;
9759;SDS011;4919;48.792;9.202;2022-08-24T03:22:56;65.90;;;25.70;;
9759;SDS011;4919;48.792;9.202;2022-08-24T03:25:22;58.20;;;24.50;;
9759;SDS011;4919;48.792;9.202;2022-08-24T03:27:51;62.63;;;25.53;;
9759;SDS011;4919;48.792;9.202;2022-08-24T03:30:19;75.97;;;26.17;;
9759;SDS011;4919;48.792;9.202;2022-08-24T03:32:48;65.90;;;25.30;;
9759;SDS011;4919;48.792;9.202;2022-08-24T03:35:15;63.33;;;26.67;;
9759;SDS011;4919;48.792;9.202;2022-08-24T03:37:43;68.03;;;26.33;;
9759;SDS011;4919;48.792;9.202;2022-08-24T03:40:12;69.97;;;26.80;;
9759;SDS011;4919;48.792;9.202;2022-08-24T03:42:53;65.70;;;27.57;;
9759;SDS011;4919;48.792;9.202;2022-08-24T03:45:20;59.70;;;25.70;;
9759;SDS011;4919;48.792;9.202;2022-08-24T03:47:49;67.77;;;26.67;;
9759;SDS011;4919;48.792;9.202;2022-08-24T03:50:16;64.87;;;25.57;;
9759;SDS011;4919;48.792;9.202;2022-08-24T03:52:45;61.27;;;26.40;;
9759;SDS011;4919;48.792;9.202;2022-08-24T03:55:13;60.30;;;25.97;;
9759;SDS011;4919;48.792;9.202;2022-08-24T03:57:40;70.37;;;26.13;;
9759;SDS011;4919;48.792;9.202;2022-08-24T04:00:08;70.00;;;26.63;;
9759;SDS011;4919;48.792;9.202;2022-08-24T04:02:52;66.13;;;26.47;;
9759;SDS011;4919;48.792;9.202;2022-08-24T04:05:21;65.10;;;25.90;;
9759;SDS011;4919;48.792;9.202;2022-08-24T04:07:47;69.50;;;26.43;;
9759;SDS011;4919;48.792;9.202;2022-08-24T04:10:14;62.90;;;25.57;;
9759;SDS011;4919;48.792;9.202;2022-08-24T04:12:41;78.10;;;25.53;;
9759;SDS011;4919;48.792;9.202;2022-08-24T04:15:08;72.30;;;25.17;;
9759;SDS011;4919;48.792;9.202;2022-08-24T04:17:37;65.90;;;26.17;;
9759;SDS011;4919;48.792;9.202;2022-08-24T04:20:05;66.20;;;25.30;;
9759;SDS011;4919;48.792;9.202;2022-08-24T04:22:34;60.47;;;26.63;;
9759;SDS011;4919;48.792;9.202;2022-08-24T04:25:03;57.40;;;25.83;;
9759;SDS011;4919;48.792;9.202;2022-08-24T04:27:35;61.63;;;25.67;;
9759;SDS011;4919;48.792;9.202;2022-08-24T04:30:03;67.40;;;24.70;;
9759;SDS011;4919;48.792;9.202;2022-08-24T04:32:41;75.73;;;24.83;;
9759;SDS011;4919;48.792;9.202;2022-08-24T04:35:08;108.43;;;23.77;;
9759;SDS011;4919;48.792;9.202;2022-08-24T04:37:35;60.10;;;23.83;;
9759;SDS011;4919;48.792;9.202;2022-08-24T04:40:03;123.30;;;23.03;;
9759;SDS011;4919;48.792;9.202;2022-08-24T04:42:39;61.03;;;22.93;;
9759;SDS011;4919;48.792;9.202;2022-08-24T04:45:06;58.07;;;23.40;;
9759;SDS011;4919;48.792;9.202;2022-08-24T04:47:33;92.10;;;21.27;;
9759;SDS011;4919;48.792;9.202;2022-08-24T04:50:00;63.10;;;19.77;;
9759;SDS011;4919;48.792;9.202;2022-08-24T04:52:27;51.23;;;19.70;;
9759;SDS011;4919;48.792;9.202;2022-08-24T04:54:55;41.93;;;19.80;;
9759;SDS011;4919;48.792;9.202;2022-08-24T04:57:24;38.07;;;20.87;;
9759;SDS011;4919;48.792;9.202;2022-08-24T04:59:54;32.37;;;18.67;;
9759;SDS011;4919;48.792;9.202;2022-08-24T05:02:22;36.93;;;20.37;;
9759;SDS011;4919;48.792;9.202;2022-08-24T05:04:51;36.20;;;20.47;;
9759;SDS011;4919;48.792;9.202;2022-08-24T05:07:20;34.27;;;19.07;;
9759;SDS011;4919;48.792;9.202;2022-08-24T05:09:47;32.63;;;19.00;;
9759;SDS011;4919;48.792;9.202;2022-08-24T05:12:18;26.43;;;18.70;;
9759;SDS011;4919;48.792;9.202;2022-08-24T05:14:54;26.00;;;17.07;;
9759;SDS011;4919;48.792;9.202;2022-08-24T05:17:21;23.20;;;17.03;;
9759;SDS011;4919;48.792;9.202;2022-08-24T05:19:48;22.83;;;16.50;;
9759;SDS011;4919;48.792;9.202;2022-08-24T05:22:16;23.20;;;16.87;;
9759;SDS011;4919;48.792;9.202;2022-08-24T05:24:47;25.63;;;17.90;;
9759;SDS011;4919;48.792;9.202;2022-08-24T05:27:14;27.43;;;19.30;;
9759;SDS011;4919;48.792;9.202;2022-08-24T05:29:44;28.27;;;18.30;;
9759;SDS011;4919;48.792;9.202;2022-08-24T05:32:12;23.77;;;17.27;;
9759;SDS011;4919;48.792;9.202;2022-08-24T05:34:40;30.50;;;17.77;;
9759;SDS011;4919;48.792;9.202;2022-08-24T05:37:06;25.67;;;18.03;;
9759;SDS011;4919;48.792;9.202;2022-08-24T05:39:47;24.53;;;17.30;;
9759;SDS011;4919;48.792;9.202;2022-08-24T05:42:15;26.63;;;18.67;;
9759;SDS011;4919;48.792;9.202;2022-08-24T05:44:46;29.63;;;19.50;;
9759;SDS011;4919;48.792;9.202;2022-08-24T05:47:17;29.07;;;20.23;;
9759;SDS011;4919;48.792;9.202;2022-08-24T05:49:45;28.93;;;19.77;;
9759;SDS011;4919;48.792;9.202;2022-08-24T05:52:14;32.10;;;20.83;;
9759;SDS011;4919;48.792;9.202;2022-08-24T05:54:42;31.90;;;20.60;;
9759;SDS011;4919;48.792;9.202;2022-08-24T05:57:13;30.60;;;20.37;;
9759;SDS011;4919;48.792;9.202;2022-08-24T05:59:52;34.10;;;21.77;;
9759;SDS011;4919;48.792;9.202;2022-08-24T06:02:20;36.13;;;21.20;;
9759;SDS011;4919;48.792;9.202;2022-08-24T06:04:48;32.57;;;21.90;;
9759;SDS011;4919;48.792;9.202;2022-08-24T06:07:15;36.27;;;22.20;;
9759;SDS011;4919;48.792;9.202;2022-08-24T06:09:48;33.43;;;21.77;;
9759;SDS011;4919;48.792;9.202;2022-08-24T06:12:15;32.50;;;22.47;;
9759;SDS011;4919;48.792;9.202;2022-08-24T06:14:44;31.20;;;21.33;;
9759;SDS011;4919;48.792;9.202;2022-08-24T06:17:16;33.07;;;21.27;;
9759;SDS011;4919;48.792;9.202;2022-08-24T06:19:43;29.97;;;20.73;;
9759;SDS011;4919;48.792;9.202;2022-08-24T06:22:10;28.27;;;20.40;;
9759;SDS011;4919;48.792;9.202;2022-08-24T06:24:38;28.30;;;20.30;;
9759;SDS011;4919;48.792;9.202;2022-08-24T06:27:25;25.43;;;19.53;;
9759;SDS011;4919;48.792;9.202;2022-08-24T06:29:55;27.67;;;19.90;;
9759;SDS011;4919;48.792;9.202;2022-08-24T06:32:44;26.53;;;20.00;;
9759;SDS011;4919;48.792;9.202;2022-08-24T06:35:21;26.90;;;19.27;;
9759;SDS011;4919;48.792;9.202;2022-08-24T06:37:48;26.30;;;18.87;;
9759;SDS011;4919;48.792;9.202;2022-08-24T06:40:15;27.83;;;19.47;;
9759;SDS011;4919;48.792;9.202;2022-08-24T06:42:46;27.63;;;19.17;;
9759;SDS011;4919;48.792;9.202;2022-08-24T06:45:24;22.40;;;17.33;;
9759;SDS011;4919;48.792;9.202;2022-08-24T06:47:51;25.77;;;18.80;;
9759;SDS011;4919;48.792;9.202;2022-08-24T06:50:18;24.67;;;18.33;;
9759;SDS011;4919;48.792;9.202;2022-08-24T06:52:49;24.80;;;18.60;;
9759;SDS011;4919;48.792;9.202;2022-08-24T06:55:16;22.47;;;18.03;;
9759;SDS011;4919;48.792;9.202;2022-08-24T06:57:44;23.70;;;18.67;;
9759;SDS011;4919;48.792;9.202;2022-08-24T07:00:26;24.53;;;17.83;;
9759;SDS011;4919;48.792;9.202;2022-08-24T07:02:53;26.43;;;19.37;;
9759;SDS011;4919;48.792;9.202;2022-08-24T07:05:22;26.10;;;20.13;;
9759;SDS011;4919;48.792;9.202;2022-08-24T07:08:11;25.20;;;19.00;;
9759;SDS011;4919;48.792;9.202;2022-08-24T07:10:39;28.43;;;19.63;;
9759;SDS011;4919;48.792;9.202;2022-08-24T07:13:06;29.30;;;20.93;;
9759;SDS011;4919;48.792;9.202;2022-08-24T07:15:36;30.83;;;21.80;;
9759;SDS011;4919;48.792;9.202;2022-08-24T07:18:17;30.23;;;20.80;;
9759;SDS011;4919;48.792;9.202;2022-08-24T07:20:47;29.60;;;21.10;;
9759;SDS011;4919;48.792;9.202;2022-08-24T07:23:33;33.83;;;21.87;;
9759;SDS011;4919;48.792;9.202;2022-08-24T07:26:10;31.13;;;21.60;;
9759;SDS011;4919;48.792;9.202;2022-08-24T07:28:50;28.57;;;20.27;;
9759;SDS011;4919;48.792;9.202;2022-08-24T07:31:19;30.50;;;20.57;;
9759;SDS011;4919;48.792;9.202;2022-08-24T07:34:05;28.97;;;20.77;;
9759;SDS011;4919;48.792;9.202;2022-08-24T07:36:33;27.53;;;20.87;;
9759;SDS011;4919;48.792;9.202;2022-08-24T07:39:10;28.37;;;20.60;;
9759;SDS011;4919;48.792;9.202;2022-08-24T07:41:38;27.00;;;20.27;;
9759;SDS011;4919;48.792;9.202;2022-08-24T07:44:27;31.47;;;20.97;;
9759;SDS011;4919;48.792;9.202;2022-08-24T07:46:56;31.03;;;21.77;;
9759;SDS011;4919;48.792;9.202;2022-08-24T07:49:40;29.33;;;21.80;;
9759;SDS011;4919;48.792;9.202;2022-08-24T07:52:07;27.00;;;20.83;;
9759;SDS011;4919;48.792;9.202;2022-08-24T07:54:36;30.70;;;20.97;;
9759;SDS011;4919;48.792;9.202;2022-08-24T07:57:03;23.00;;;19.70;;
9759;SDS011;4919;48.792;9.202;2022-08-24T07:59:33;28.03;;;21.97;;
9759;SDS011;4919;48.792;9.202;2022-08-24T08:02:00;24.00;;;18.67;;
9759;SDS011;4919;48.792;9.202;2022-08-24T08:04:28;16.17;;;14.47;;
9759;SDS011;4919;48.792;9.202;2022-08-24T08:06:57;24.77;;;17.50;;
9759;SDS011;4919;48.792;9.202;2022-08-24T08:09:27;22.50;;;16.27;;
9759;SDS011;4919;48.792;9.202;2022-08-24T08:11:54;17.00;;;13.83;;
9759;SDS011;4919;48.792;9.202;2022-08-24T08:14:21;18.93;;;14.37;;
9759;SDS011;4919;48.792;9.202;2022-08-24T08:16:49;20.57;;;15.87;;
9759;SDS011;4919;48.792;9.202;2022-08-24T08:19:16;23.67;;;16.27;;
9759;SDS011;4919;48.792;9.202;2022-08-24T08:21:45;22.87;;;16.30;;
9759;SDS011;4919;48.792;9.202;2022-08-24T08:24:56;22.10;;;16.43;;
9759;SDS011;4919;48.792;9.202;2022-08-24T08:27:23;22.37;;;17.03;;
9759;SDS011;4919;48.792;9.202;2022-08-24T08:29:50;21.23;;;15.90;;
9759;SDS011;4919;48.792;9.202;2022-08-24T08:32:17;21.43;;;15.43;;
9759;SDS011;4919;48.792;9.202;2022-08-24T08:34:47;18.63;;;14.20;;
9759;SDS011;4919;48.792;9.202;2022-08-24T08:37:14;19.53;;;13.60;;
9759;SDS011;4919;48.792;9.202;2022-08-24T08:39:41;20.73;;;13.70;;
9759;SDS011;4919;48.792;9.202;2022-08-24T09:01:30;16.40;;;11.20;;
9759;SDS011;4919;48.792;9.202;2022-08-24T09:08:14;15.63;;;12.00;;
9759;SDS011;4919;48.792;9.202;2022-08-24T09:11:02;16.00;;;11.33;;
9759;SDS011;4919;48.792;9.202;2022-08-24T09:16:44;14.67;;;11.43;;
9759;SDS011;4919;48.792;9.202;2022-08-24T09:19:57;15.80;;;11.43;;
9759;SDS011;4919;48.792;9.202;2022-08-24T09:22:40;13.07;;;10.53;;
9759;SDS011;4919;48.792;9.202;2022-08-24T09:33:30;13.77;;;10.63;;
9759;SDS011;4919;48.792;9.202;2022-08-24T09:36:11;12.60;;;10.80;;
9759;SDS011;4919;48.792;9.202;2022-08-24T10:00:56;10.33;;;9.10;;
9759;SDS011;4919;48.792;9.202;2022-08-24T10:09:02;11.20;;;9.33;;
9759;SDS011;4919;48.792;9.202;2022-08-24T10:12:01;10.37;;;9.37;;
9759;SDS011;4919;48.792;9.202;2022-08-24T10:23:04;10.67;;;8.97;;
9759;SDS011;4919;48.792;9.202;2022-08-24T10:31:18;10.83;;;8.73;;
9759;SDS011;4919;48.792;9.202;2022-08-24T10:34:24;9.87;;;8.90;;
9759;SDS011;4919;48.792;9.202;2022-08-24T10:42:21;9.90;;;8.13;;
9759;SDS011;4919;48.792;9.202;2022-08-24T10:53:36;9.93;;;8.40;;
9759;SDS011;4919;48.792;9.202;2022-08-24T10:56:13;11.10;;;8.43;;
9759;SDS011;4919;48.792;9.202;2022-08-24T10:58:47;10.47;;;7.80;;
9759;SDS011;4919;48.792;9.202;2022-08-24T11:01:36;9.73;;;8.23;;
9759;SDS011;4919;48.792;9.202;2022-08-24T11:12:21;10.67;;;8.80;;
9759;SDS011;4919;48.792;9.202;2022-08-24T11:14:59;11.00;;;8.63;;
9759;SDS011;4919;48.792;9.202;2022-08-24T11:18:03;10.93;;;9.67;;
9759;SDS011;4919;48.792;9.202;2022-08-24T11:20:31;9.10;;;8.20;;
9759;SDS011;4919;48.792;9.202;2022-08-24T11:23:03;11.37;;;9.30;;
9759;SDS011;4919;48.792;9.202;2022-08-24T11:25:34;10.20;;;8.70;;
9759;SDS011;4919;48.792;9.202;2022-08-24T11:28:39;10.47;;;8.90;;
9759;SDS011;4919;48.792;9.202;2022-08-24T11:31:02;9.23;;;7.93;;
9759;SDS011;4919;48.792;9.202;2022-08-24T11:33:30;13.97;;;8.73;;
9759;SDS011;4919;48.792;9.202;2022-08-24T11:36:16;10.67;;;8.50;;
9759;SDS011;4919;48.792;9.202;2022-08-24T11:38:49;10.70;;;8.30;;
9759;SDS011;4919;48.792;9.202;2022-08-24T11:44:42;8.83;;;7.80;;
9759;SDS011;4919;48.792;9.202;2022-08-24T11:47:41;11.30;;;8.47;;
9759;SDS011;4919;48.792;9.202;2022-08-24T11:50:47;11.07;;;8.07;;
9759;SDS011;4919;48.792;9.202;2022-08-24T11:54:04;10.57;;;7.87;;
9759;SDS011;4919;48.792;9.202;2022-08-24T12:02:23;11.37;;;7.80;;
9759;SDS011;4919;48.792;9.202;2022-08-24T12:21:42;9.97;;;7.27;;
9759;SDS011;4919;48.792;9.202;2022-08-24T12:24:14;9.87;;;7.87;;
9759;SDS011;4919;48.792;9.202;2022-08-24T12:26:50;11.67;;;8.27;;
9759;SDS011;4919;48.792;9.202;2022-08-24T12:29:34;10.87;;;7.77;;
9759;SDS011;4919;48.792;9.202;2022-08-24T12:32:23;10.13;;;8.23;;
9759;SDS011;4919;48.792;9.202;2022-08-24T12:37:37;10.73;;;7.80;;
9759;SDS011;4919;48.792;9.202;2022-08-24T12:40:23;9.80;;;8.20;;
9759;SDS011;4919;48.792;9.202;2022-08-24T12:43:12;11.00;;;8.63;;
9759;SDS011;4919;48.792;9.202;2022-08-24T12:45:47;8.60;;;7.70;;
9759;SDS011;4919;48.792;9.202;2022-08-24T12:51:12;9.60;;;8.60;;
9759;SDS011;4919;48.792;9.202;2022-08-24T12:59:49;9.27;;;7.37;;
9759;SDS011;4919;48.792;9.202;2022-08-24T13:15:54;8.37;;;7.20;;
9759;SDS011;4919;48.792;9.202;2022-08-24T13:17:58;9.70;;;7.20;;
9759;SDS011;4919;48.792;9.202;2022-08-24T13:20:51;9.03;;;7.27;;
9759;SDS011;4919;48.792;9.202;2022-08-24T13:28:43;10.27;;;7.70;;
9759;SDS011;4919;48.792;9.202;2022-08-24T13:31:14;8.60;;;7.43;;
9759;SDS011;4919;48.792;9.202;2022-08-24T13:36:35;8.70;;;7.90;;
9759;SDS011;4919;48.792;9.202;2022-08-24T13:47:53;10.03;;;7.90;;
9759;SDS011;4919;48.792;9.202;2022-08-24T13:50:35;12.77;;;7.87;;
9759;SDS011;4919;48.792;9.202;2022-08-24T14:02:40;11.33;;;7.83;;
9759;SDS011;4919;48.792;9.202;2022-08-24T14:05:40;9.40;;;7.87;;
9759;SDS011;4919;48.792;9.202;2022-08-24T14:25:20;9.10;;;6.80;;
9759;SDS011;4919;48.792;9.202;2022-08-24T14:28:21;7.30;;;6.10;;
9759;SDS011;4919;48.792;9.202;2022-08-24T14:30:43;7.67;;;6.67;;
9759;SDS011;4919;48.792;9.202;2022-08-24T14:42:34;9.20;;;6.70;;
9759;SDS011;4919;48.792;9.202;2022-08-24T14:50:39;7.90;;;6.37;;
9759;SDS011;4919;48.792;9.202;2022-08-24T15:01:49;6.80;;;5.63;;
9759;SDS011;4919;48.792;9.202;2022-08-24T15:04:46;7.80;;;6.17;;
9759;SDS011;4919;48.792;9.202;2022-08-24T15:07:21;6.97;;;5.93;;
9759;SDS011;4919;48.792;9.202;2022-08-24T15:09:49;9.17;;;5.93;;
9759;SDS011;4919;48.792;9.202;2022-08-24T15:17:40;11.13;;;6.70;;
9759;SDS011;4919;48.792;9.202;2022-08-24T15:20:35;6.23;;;5.63;;
9759;SDS011;4919;48.792;9.202;2022-08-24T15:23:16;8.63;;;5.53;;
9759;SDS011;4919;48.792;9.202;2022-08-24T15:26:05;9.40;;;6.17;;
9759;SDS011;4919;48.792;9.202;2022-08-24T15:28:36;7.47;;;5.77;;
9759;SDS011;4919;48.792;9.202;2022-08-24T15:31:23;7.30;;;5.90;;
9759;SDS011;4919;48.792;9.202;2022-08-24T15:33:57;7.90;;;5.67;;
9759;SDS011;4919;48.792;9.202;2022-08-24T15:36:27;6.80;;;5.90;;
9759;SDS011;4919;48.792;9.202;2022-08-24T15:38:58;7.77;;;6.10;;
9759;SDS011;4919;48.792;9.202;2022-08-24T15:41:31;9.90;;;6.50;;
9759;SDS011;4919;48.792;9.202;2022-08-24T15:46:31;6.73;;;6.13;;
9759;SDS011;4919;48.792;9.202;2022-08-24T15:49:07;8.53;;;6.80;;
9759;SDS011;4919;48.792;9.202;2022-08-24T15:51:48;8.70;;;6.37;;
9759;SDS011;4919;48.792;9.202;2022-08-24T15:56:53;7.53;;;6.00;;
9759;SDS011;4919;48.792;9.202;2022-08-24T15:59:26;8.37;;;6.23;;
9759;SDS011;4919;48.792;9.202;2022-08-24T16:02:16;8.73;;;6.20;;
9759;SDS011;4919;48.792;9.202;2022-08-24T16:05:37;8.93;;;6.33;;
9759;SDS011;4919;48.792;9.202;2022-08-24T16:08:21;8.27;;;5.83;;
9759;SDS011;4919;48.792;9.202;2022-08-24T16:10:46;9.07;;;5.97;;
9759;SDS011;4919;48.792;9.202;2022-08-24T16:18:43;8.17;;;5.93;;
9759;SDS011;4919;48.792;9.202;2022-08-24T16:21:33;9.63;;;5.70;;
9759;SDS011;4919;48.792;9.202;2022-08-24T16:24:13;6.87;;;6.00;;
9759;SDS011;4919;48.792;9.202;2022-08-24T16:32:09;7.97;;;6.17;;
9759;SDS011;4919;48.792;9.202;2022-08-24T16:34:52;9.83;;;5.87;;
9759;SDS011;4919;48.792;9.202;2022-08-24T16:37:21;8.10;;;5.53;;
9759;SDS011;4919;48.792;9.202;2022-08-24T16:39:48;8.40;;;6.00;;
9759;SDS011;4919;48.792;9.202;2022-08-24T16:42:20;9.57;;;5.97;;
9759;SDS011;4919;48.792;9.202;2022-08-24T16:44:49;10.70;;;6.03;;
9759;SDS011;4919;48.792;9.202;2022-08-24T16:47:16;12.47;;;6.00;;
9759;SDS011;4919;48.792;9.202;2022-08-24T16:49:44;10.30;;;5.50;;
9759;SDS011;4919;48.792;9.202;2022-08-24T16:52:13;11.47;;;6.37;;
9759;SDS011;4919;48.792;9.202;2022-08-24T16:54:40;8.73;;;5.73;;
9759;SDS011;4919;48.792;9.202;2022-08-24T16:57:12;7.40;;;5.40;;
9759;SDS011;4919;48.792;9.202;2022-08-24T16:59:41;7.47;;;5.60;;
9759;SDS011;4919;48.792;9.202;2022-08-24T17:02:10;7.50;;;5.60;;
9759;SDS011;4919;48.792;9.202;2022-08-24T17:04:38;7.97;;;5.90;;
9759;SDS011;4919;48.792;9.202;2022-08-24T17:07:06;10.23;;;5.67;;
9759;SDS011;4919;48.792;9.202;2022-08-24T17:09:36;10.50;;;5.63;;
9759;SDS011;4919;48.792;9.202;2022-08-24T17:12:05;10.27;;;5.30;;
9759;SDS011;4919;48.792;9.202;2022-08-24T17:14:34;8.77;;;5.23;;
9759;SDS011;4919;48.792;9.202;2022-08-24T17:17:07;9.33;;;5.20;;
9759;SDS011;4919;48.792;9.202;2022-08-24T17:19:36;9.60;;;5.80;;
9759;SDS011;4919;48.792;9.202;2022-08-24T17:22:03;8.77;;;5.27;;
9759;SDS011;4919;48.792;9.202;2022-08-24T17:24:31;9.87;;;5.47;;
9759;SDS011;4919;48.792;9.202;2022-08-24T17:26:58;6.20;;;5.60;;
9759;SDS011;4919;48.792;9.202;2022-08-24T17:29:26;7.20;;;5.20;;
9759;SDS011;4919;48.792;9.202;2022-08-24T17:31:53;10.57;;;5.73;;
9759;SDS011;4919;48.792;9.202;2022-08-24T17:34:21;10.03;;;5.17;;
9759;SDS011;4919;48.792;9.202;2022-08-24T17:36:50;6.03;;;5.43;;
9759;SDS011;4919;48.792;9.202;2022-08-24T17:39:19;9.93;;;5.63;;
9759;SDS011;4919;48.792;9.202;2022-08-24T17:41:50;9.37;;;5.40;;
9759;SDS011;4919;48.792;9.202;2022-08-24T17:44:19;9.17;;;5.37;;
9759;SDS011;4919;48.792;9.202;2022-08-24T17:46:50;11.10;;;5.50;;
9759;SDS011;4919;48.792;9.202;2022-08-24T17:49:19;10.47;;;5.93;;
9759;SDS011;4919;48.792;9.202;2022-08-24T17:51:46;8.77;;;5.83;;
9759;SDS011;4919;48.792;9.202;2022-08-24T17:54:15;9.50;;;6.07;;
9759;SDS011;4919;48.792;9.202;2022-08-24T17:56:43;6.70;;;6.00;;
9759;SDS011;4919;48.792;9.202;2022-08-24T17:59:14;7.33;;;5.53;;
9759;SDS011;4919;48.792;9.202;2022-08-24T18:04:20;7.77;;;5.63;;
9759;SDS011;4919;48.792;9.202;2022-08-24T18:06:50;10.73;;;6.30;;
9759;SDS011;4919;48.792;9.202;2022-08-24T18:09:18;8.30;;;5.40;;
9759;SDS011;4919;48.792;9.202;2022-08-24T18:12:02;10.77;;;5.93;;
9759;SDS011;4919;48.792;9.202;2022-08-24T18:14:30;8.87;;;5.80;;
9759;SDS011;4919;48.792;9.202;2022-08-24T18:17:09;9.43;;;6.33;;
9759;SDS011;4919;48.792;9.202;2022-08-24T18:19:39;10.83;;;5.97;;
9759;SDS011;4919;48.792;9.202;2022-08-24T18:22:06;8.80;;;5.97;;
9759;SDS011;4919;48.792;9.202;2022-08-24T18:24:33;10.07;;;6.20;;
9759;SDS011;4919;48.792;9.202;2022-08-24T18:27:00;11.70;;;6.77;;
9759;SDS011;4919;48.792;9.202;2022-08-24T18:29:35;9.40;;;6.60;;
9759;SDS011;4919;48.792;9.202;2022-08-24T18:32:05;9.90;;;6.23;;
9759;SDS011;4919;48.792;9.202;2022-08-24T18:34:32;9.03;;;6.00;;
9759;SDS011;4919;48.792;9.202;2022-08-24T18:36:59;8.67;;;6.30;;
9759;SDS011;4919;48.792;9.202;2022-08-24T18:39:26;9.30;;;6.07;;
9759;SDS011;4919;48.792;9.202;2022-08-24T18:41:54;8.27;;;6.10;;
9759;SDS011;4919;48.792;9.202;2022-08-24T18:44:23;10.03;;;5.87;;
9759;SDS011;4919;48.792;9.202;2022-08-24T18:46:56;10.27;;;6.10;;
9759;SDS011;4919;48.792;9.202;2022-08-24T18:49:23;6.60;;;5.90;;
9759;SDS011;4919;48.792;9.202;2022-08-24T18:51:50;14.17;;;6.83;;
9759;SDS011;4919;48.792;9.202;2022-08-24T18:54:18;9.00;;;6.43;;
9759;SDS011;4919;48.792;9.202;2022-08-24T18:56:46;8.53;;;5.83;;
9759;SDS011;4919;48.792;9.202;2022-08-24T18:59:14;9.10;;;6.30;;
9759;SDS011;4919;48.792;9.202;2022-08-24T19:01:42;10.23;;;6.07;;
9759;SDS011;4919;48.792;9.202;2022-08-24T19:04:29;8.20;;;6.60;;
9759;SDS011;4919;48.792;9.202;2022-08-24T19:06:58;9.07;;;6.37;;
9759;SDS011;4919;48.792;9.202;2022-08-24T19:09:26;7.73;;;6.63;;
9759;SDS011;4919;48.792;9.202;2022-08-24T19:11:59;9.63;;;6.50;;
9759;SDS011;4919;48.792;9.202;2022-08-24T19:14:26;8.40;;;5.97;;
9759;SDS011;4919;48.792;9.202;2022-08-24T19:16:53;7.97;;;6.23;;
9759;SDS011;4919;48.792;9.202;2022-08-24T19:19:20;11.07;;;6.60;;
9759;SDS011;4919;48.792;9.202;2022-08-24T19:21:48;8.20;;;6.57;;
9759;SDS011;4919;48.792;9.202;2022-08-24T19:24:15;9.03;;;6.87;;
9759;SDS011;4919;48.792;9.202;2022-08-24T19:26:46;11.57;;;6.90;;
9759;SDS011;4919;48.792;9.202;2022-08-24T19:29:13;9.53;;;6.40;;
9759;SDS011;4919;48.792;9.202;2022-08-24T19:31:58;12.87;;;6.60;;
9759;SDS011;4919;48.792;9.202;2022-08-24T19:34:26;7.97;;;6.40;;
9759;SDS011;4919;48.792;9.202;2022-08-24T19:36:54;12.00;;;6.90;;
9759;SDS011;4919;48.792;9.202;2022-08-24T19:39:22;11.33;;;6.67;;
9759;SDS011;4919;48.792;9.202;2022-08-24T19:41:57;9.30;;;6.70;;